createdAt,value
2022-09-03T00:01:26.797Z,15.08
2022-09-03T00:04:25.782Z,15.10
2022-09-03T00:07:35.734Z,15.13
2022-09-03T00:10:19.261Z,15.13
2022-09-03T00:12:54.472Z,15.18
2022-09-03T00:15:27.043Z,15.21
2022-09-03T00:18:35.061Z,15.21
2022-09-03T00:21:21.253Z,15.18
2022-09-03T00:24:25.195Z,15.19
2022-09-03T00:27:21.499Z,15.20
2022-09-03T00:30:09.406Z,15.23
2022-09-03T00:32:53.896Z,15.20
2022-09-03T00:35:51.976Z,15.13
2022-09-03T00:38:37.821Z,15.04
2022-09-03T00:41:38.688Z,14.91
2022-09-03T00:45:39.644Z,14.81
2022-09-03T00:49:01.944Z,14.72
2022-09-03T00:51:51.347Z,14.60
2022-09-03T00:54:51.070Z,14.53
2022-09-03T00:57:56.071Z,14.48
2022-09-03T01:00:37.184Z,14.43
2022-09-03T01:03:26.452Z,14.36
2022-09-03T01:06:32.412Z,14.28
2022-09-03T01:09:19.568Z,14.23
2022-09-03T01:11:59.758Z,14.13
2022-09-03T01:15:01.305Z,13.99
2022-09-03T01:17:51.131Z,13.83
2022-09-03T01:20:29.114Z,13.73
2022-09-03T01:23:45.821Z,13.67
2022-09-03T01:26:33.772Z,13.59
2022-09-03T01:29:39.683Z,13.48
2022-09-03T01:32:48.088Z,13.37
2022-09-03T01:35:38.709Z,13.33
2022-09-03T01:38:44.786Z,13.28
2022-09-03T01:42:36.855Z,13.20
2022-09-03T01:45:29.506Z,13.12
2022-09-03T01:48:38.431Z,13.05
2022-09-03T01:51:25.629Z,13.00
2022-09-03T01:54:28.691Z,12.99
2022-09-03T01:57:56.394Z,12.94
2022-09-03T02:00:51.722Z,12.92
2022-09-03T02:03:36.448Z,12.88
2022-09-03T02:06:12.960Z,12.78
2022-09-03T02:08:47.716Z,12.76
2022-09-03T02:11:25.697Z,12.77
2022-09-03T02:14:37.844Z,12.77
2022-09-03T02:17:36.096Z,12.75
2022-09-03T02:20:34.627Z,12.76
2022-09-03T02:23:38.570Z,12.77
2022-09-03T02:26:55.995Z,12.77
2022-09-03T02:30:22.585Z,12.79
2022-09-03T02:33:04.399Z,12.79
2022-09-03T02:35:43.332Z,12.78
2022-09-03T02:38:28.687Z,12.76
2022-09-03T02:41:40.476Z,12.76
2022-09-03T02:44:41.284Z,12.75
2022-09-03T02:47:32.159Z,12.73
2022-09-03T02:50:13.303Z,12.68
2022-09-03T02:53:05.748Z,12.64
2022-09-03T02:56:01.185Z,12.61
2022-09-03T02:58:35.423Z,12.61
2022-09-03T03:01:28.196Z,12.58
2022-09-03T03:04:09.889Z,12.57
2022-09-03T03:06:52.788Z,12.54
2022-09-03T03:09:38.329Z,12.53
2022-09-03T03:12:26.671Z,12.56
2022-09-03T03:15:07.790Z,12.57
2022-09-03T03:17:47.841Z,12.57
2022-09-03T03:20:50.527Z,12.58
2022-09-03T03:23:37.752Z,12.62
2022-09-03T03:26:32.630Z,12.64
2022-09-03T03:29:22.942Z,12.64
2022-09-03T03:32:35.335Z,12.64
2022-09-03T03:35:24.192Z,12.66
2022-09-03T03:38:11.777Z,12.68
2022-09-03T03:40:56.496Z,12.67
2022-09-03T03:43:33.462Z,12.67
2022-09-03T03:46:24.228Z,12.66
2022-09-03T03:49:15.944Z,12.66
2022-09-03T03:52:08.108Z,12.64
2022-09-03T03:54:52.188Z,12.63
2022-09-03T03:57:48.217Z,12.62
2022-09-03T04:00:49.906Z,12.62
2022-09-03T04:04:02.191Z,12.61
2022-09-03T04:06:45.653Z,12.60
2022-09-03T04:09:33.372Z,12.59
2022-09-03T04:12:10.358Z,12.59
2022-09-03T04:14:43.236Z,12.59
2022-09-03T04:17:16.470Z,12.58
2022-09-03T04:19:50.949Z,12.54
2022-09-03T04:22:51.959Z,12.52
2022-09-03T04:25:36.466Z,12.50
2022-09-03T04:28:45.990Z,12.48
2022-09-03T04:31:27.608Z,12.46
2022-09-03T04:34:15.624Z,12.44
2022-09-03T04:37:06.399Z,12.41
2022-09-03T04:40:01.031Z,12.40
2022-09-03T04:42:57.634Z,12.38
2022-09-03T04:46:06.617Z,12.32
2022-09-03T04:48:41.700Z,12.28
2022-09-03T04:51:16.431Z,12.29
2022-09-03T04:54:19.006Z,12.30
2022-09-03T04:56:56.201Z,12.30
2022-09-03T04:59:46.615Z,12.33
2022-09-03T05:02:48.813Z,12.36
2022-09-03T05:06:03.907Z,12.36
2022-09-03T05:09:24.532Z,12.37
2022-09-03T05:11:54.858Z,12.40
2022-09-03T05:15:05.750Z,12.40
2022-09-03T05:17:57.760Z,12.39
2022-09-03T05:20:36.499Z,12.42
2022-09-03T05:23:13.555Z,12.43
2022-09-03T05:25:59.531Z,12.43
2022-09-03T05:28:38.104Z,12.43
2022-09-03T05:31:22.374Z,12.44
2022-09-03T05:34:26.239Z,12.43
2022-09-03T05:37:06.931Z,12.46
2022-09-03T05:39:48.210Z,12.48
2022-09-03T05:42:40.107Z,12.47
2022-09-03T05:45:39.116Z,12.46
2022-09-03T05:48:37.833Z,12.46
2022-09-03T05:51:29.225Z,12.50
2022-09-03T05:54:32.317Z,12.55
2022-09-03T05:57:13.392Z,12.61
2022-09-03T06:00:07.795Z,12.69
2022-09-03T06:02:51.007Z,12.78
2022-09-03T06:05:41.299Z,12.86
2022-09-03T06:09:09.480Z,12.96
2022-09-03T06:12:10.085Z,13.08
2022-09-03T06:15:34.069Z,13.25
2022-09-03T06:18:23.122Z,13.41
2022-09-03T06:21:07.689Z,13.55
2022-09-03T06:23:36.916Z,13.67
2022-09-03T06:26:09.341Z,13.80
2022-09-03T06:28:43.548Z,13.89
2022-09-03T06:31:14.899Z,13.99
2022-09-03T06:33:44.205Z,14.09
2022-09-03T06:36:15.819Z,14.18
2022-09-03T06:38:55.354Z,14.26
2022-09-03T06:41:35.907Z,14.32
2022-09-03T06:44:20.705Z,14.40
2022-09-03T06:47:35.684Z,14.46
2022-09-03T06:50:08.294Z,14.50
2022-09-03T06:53:00.355Z,14.56
2022-09-03T06:55:55.615Z,14.63
2022-09-03T06:58:43.815Z,14.68
2022-09-03T07:01:33.861Z,14.72
2022-09-03T07:04:21.350Z,14.76
2022-09-03T07:06:53.486Z,14.80
2022-09-03T07:09:25.424Z,14.83
2022-09-03T07:11:59.733Z,14.86
2022-09-03T07:14:34.013Z,14.91
2022-09-03T07:17:25.741Z,14.96
2022-09-03T07:19:59.924Z,15.01
2022-09-03T07:22:31.814Z,15.02
2022-09-03T07:25:03.980Z,15.06
2022-09-03T07:27:34.803Z,15.08
2022-09-03T07:30:03.986Z,15.13
2022-09-03T07:32:34.515Z,15.17
2022-09-03T07:35:03.435Z,15.19
2022-09-03T07:37:31.989Z,15.22
2022-09-03T07:40:02.118Z,15.24
2022-09-03T07:42:36.329Z,15.25
2022-09-03T07:45:12.888Z,15.27
2022-09-03T07:47:51.443Z,15.30
2022-09-03T07:50:20.572Z,15.39
2022-09-03T07:52:57.490Z,15.50
2022-09-03T07:55:29.357Z,15.62
2022-09-03T07:58:07.603Z,15.77
2022-09-03T08:00:40.109Z,15.92
2022-09-03T08:03:11.814Z,16.09
2022-09-03T08:05:42.857Z,16.24
2022-09-03T08:08:15.513Z,16.33
2022-09-03T08:10:45.256Z,16.44
2022-09-03T08:13:14.031Z,16.56
2022-09-03T08:15:43.247Z,16.65
2022-09-03T08:18:16.002Z,16.75
2022-09-03T08:21:10.594Z,16.84
2022-09-03T08:23:41.169Z,16.92
2022-09-03T08:26:10.511Z,16.99
2022-09-03T08:28:39.525Z,17.07
2022-09-03T08:31:13.114Z,17.16
2022-09-03T08:33:44.325Z,17.28
2022-09-03T08:36:17.589Z,17.40
2022-09-03T08:38:47.063Z,17.52
2022-09-03T08:41:44.636Z,17.60
2022-09-03T08:44:49.606Z,17.74
2022-09-03T08:47:28.834Z,17.93
2022-09-03T08:50:18.383Z,18.09
2022-09-03T08:52:50.721Z,18.21
2022-09-03T08:55:25.966Z,18.26
2022-09-03T08:58:14.825Z,18.33
2022-09-03T09:01:08.124Z,18.45
2022-09-03T09:04:14.154Z,18.52
2022-09-03T09:07:09.765Z,18.59
2022-09-03T09:09:51.147Z,18.62
2022-09-03T09:12:22.394Z,18.70
2022-09-03T09:15:16.224Z,18.78
2022-09-03T09:18:18.166Z,18.83
2022-09-03T09:21:21.931Z,18.91
2022-09-03T09:24:02.846Z,19.00
2022-09-03T09:26:32.115Z,19.01
2022-09-03T09:29:10.642Z,19.06
2022-09-03T09:31:42.239Z,19.12
2022-09-03T09:34:21.825Z,19.15
2022-09-03T09:36:56.543Z,19.18
2022-09-03T09:39:28.411Z,19.24
2022-09-03T09:42:12.820Z,19.24
2022-09-03T09:44:44.923Z,19.23
2022-09-03T09:47:23.143Z,19.21
2022-09-03T09:49:53.470Z,19.18
2022-09-03T09:52:26.147Z,19.16
2022-09-03T09:55:15.137Z,19.22
2022-09-03T09:57:45.022Z,19.15
2022-09-03T10:00:17.134Z,19.11
2022-09-03T10:02:51.960Z,19.28
2022-09-03T10:05:37.888Z,19.42
2022-09-03T10:08:22.185Z,19.53
2022-09-03T10:10:52.178Z,19.70
2022-09-03T10:13:42.026Z,19.87
2022-09-03T10:16:35.103Z,20.16
2022-09-03T10:19:19.742Z,20.42
2022-09-03T10:21:59.740Z,20.64
2022-09-03T10:25:01.294Z,20.90
2022-09-03T10:27:30.240Z,21.20
2022-09-03T10:30:00.820Z,21.35
2022-09-03T10:32:58.532Z,21.49
2022-09-03T10:35:46.547Z,21.82
2022-09-03T10:38:30.269Z,22.10
2022-09-03T10:41:24.863Z,22.18
2022-09-03T10:44:26.194Z,22.16
2022-09-03T10:47:19.997Z,22.28
2022-09-03T10:49:54.606Z,22.37
2022-09-03T10:52:33.844Z,22.35
2022-09-03T10:55:19.733Z,22.33
2022-09-03T10:58:08.044Z,22.31
2022-09-03T11:00:41.743Z,22.18
2022-09-03T11:03:27.856Z,22.08
2022-09-03T11:05:56.543Z,22.23
2022-09-03T11:08:36.595Z,22.46
2022-09-03T11:11:27.999Z,22.51
2022-09-03T11:14:09.397Z,22.26
2022-09-03T11:16:51.090Z,22.44
2022-09-03T11:19:27.811Z,22.90
2022-09-03T11:21:57.173Z,23.33
2022-09-03T11:24:35.372Z,23.77
2022-09-03T11:27:38.605Z,23.96
2022-09-03T11:30:09.738Z,23.74
2022-09-03T11:32:52.954Z,23.78
2022-09-03T11:35:38.623Z,24.15
2022-09-03T11:38:21.642Z,24.17
2022-09-03T11:41:04.784Z,24.20
2022-09-03T11:43:37.247Z,24.62
2022-09-03T11:46:23.617Z,25.03
2022-09-03T11:48:56.630Z,25.49
2022-09-03T11:51:33.143Z,26.01
2022-09-03T11:54:14.584Z,26.53
2022-09-03T11:56:43.372Z,26.71
2022-09-03T11:59:27.309Z,26.51
2022-09-03T12:02:28.190Z,26.42
2022-09-03T12:05:10.034Z,26.82
2022-09-03T12:08:24.741Z,27.46
2022-09-03T12:10:56.025Z,27.83
2022-09-03T12:13:24.812Z,27.92
2022-09-03T12:16:12.098Z,28.16
2022-09-03T12:18:45.875Z,28.35
2022-09-03T12:21:18.147Z,28.51
2022-09-03T12:23:58.161Z,28.35
2022-09-03T12:26:27.841Z,28.45
2022-09-03T12:28:59.257Z,28.67
2022-09-03T12:31:44.634Z,28.71
2022-09-03T12:34:16.498Z,28.61
2022-09-03T12:36:48.153Z,28.48
2022-09-03T12:40:04.756Z,28.58
2022-09-03T12:42:17.264Z,28.78
2022-09-03T12:44:46.270Z,29.02
2022-09-03T12:47:38.371Z,29.23
2022-09-03T12:50:21.117Z,29.50
2022-09-03T12:52:59.119Z,29.84
2022-09-03T12:55:55.252Z,29.96
2022-09-03T12:58:32.184Z,29.94
2022-09-03T13:01:22.046Z,30.30
2022-09-03T13:03:58.134Z,30.45
2022-09-03T13:06:33.456Z,30.59
2022-09-03T13:09:06.838Z,30.71
2022-09-03T13:11:39.391Z,30.88
2022-09-03T13:14:13.180Z,31.15
2022-09-03T13:16:50.396Z,31.52
2022-09-03T13:19:37.664Z,31.67
2022-09-03T13:22:15.129Z,31.87
2022-09-03T13:25:21.755Z,32.11
2022-09-03T13:28:08.015Z,32.45
2022-09-03T13:31:15.721Z,32.55
2022-09-03T13:33:50.125Z,32.40
2022-09-03T13:36:26.194Z,32.47
2022-09-03T13:39:29.076Z,32.68
2022-09-03T13:42:10.124Z,32.97
2022-09-03T13:45:06.916Z,33.28
2022-09-03T13:48:05.834Z,33.43
2022-09-03T13:51:04.097Z,33.17
2022-09-03T13:53:48.975Z,32.56
2022-09-03T13:56:43.268Z,32.15
2022-09-03T13:59:41.812Z,31.84
2022-09-03T14:02:28.803Z,31.57
2022-09-03T14:05:10.530Z,31.37
2022-09-03T14:08:10.202Z,31.29
2022-09-03T14:11:17.226Z,31.25
2022-09-03T14:13:55.282Z,31.15
2022-09-03T14:16:45.101Z,30.76
2022-09-03T14:19:35.230Z,30.11
2022-09-03T14:22:46.271Z,29.44
2022-09-03T14:25:30.867Z,28.68
2022-09-03T14:28:21.230Z,28.32
2022-09-03T14:31:44.679Z,28.36
2022-09-03T14:34:35.091Z,28.40
2022-09-03T14:37:26.096Z,28.12
2022-09-03T14:39:56.886Z,27.39
2022-09-03T14:42:32.724Z,26.87
2022-09-03T14:45:29.096Z,26.84
2022-09-03T14:48:31.474Z,26.72
2022-09-03T14:51:36.296Z,26.69
2022-09-03T14:54:19.287Z,26.68
2022-09-03T14:57:17.507Z,26.23
2022-09-03T15:00:19.652Z,25.71
2022-09-03T15:02:51.802Z,25.23
2022-09-03T15:05:42.652Z,24.84
2022-09-03T15:08:34.129Z,24.39
2022-09-03T15:11:10.884Z,23.99
2022-09-03T15:13:48.910Z,23.73
2022-09-03T15:16:23.215Z,23.42
2022-09-03T15:19:18.713Z,23.03
2022-09-03T15:22:09.866Z,22.90
2022-09-03T15:25:01.040Z,22.97
2022-09-03T15:27:42.143Z,22.97
2022-09-03T15:30:19.322Z,22.83
2022-09-03T15:33:26.051Z,22.96
2022-09-03T15:36:27.623Z,22.89
2022-09-03T15:39:31.235Z,22.78
2022-09-03T15:42:09.787Z,22.63
2022-09-03T15:45:06.064Z,22.56
2022-09-03T15:47:54.532Z,22.56
2022-09-03T15:50:55.797Z,22.61
2022-09-03T15:53:45.086Z,22.63
2022-09-03T15:56:23.682Z,22.79
2022-09-03T15:59:01.830Z,22.92
2022-09-03T16:01:43.527Z,22.86
2022-09-03T16:04:26.115Z,22.80
2022-09-03T16:07:04.118Z,22.71
2022-09-03T16:10:23.843Z,22.64
2022-09-03T16:13:28.224Z,22.44
2022-09-03T16:16:06.791Z,22.36
2022-09-03T16:18:55.907Z,22.35
2022-09-03T16:21:54.896Z,22.37
2022-09-03T16:24:46.833Z,22.53
2022-09-03T16:27:57.403Z,22.66
2022-09-03T16:30:48.309Z,22.51
2022-09-03T16:33:28.974Z,22.45
2022-09-03T16:36:26.459Z,22.40
